Time;durP1;ratioP1;P1;durP2;ratioP2;P2;SDS_P1;SDS_P2;PMS_P1;PMS_P2;Temp;Humidity;BMP_temperature;BMP_pressure;BME280_temperature;BME280_humidity;BME280_pressure;Samples;Min_cycle;Max_cycle;Signal;HPM_P1;HPM_P2
2022/03/29 00:01:43;;;;;;;27.58;17.10;;;;;;;10.94;40.47;100721.56;5043393;28;20037;-73
2022/03/29 00:04:08;;;;;;;33.85;17.83;;;;;;;11.04;39.43;100725.09;5047172;28;20508;-73
2022/03/29 00:06:34;;;;;;;36.83;18.50;;;;;;;10.94;41.39;100725.94;5040458;28;20024;-73
2022/03/29 00:08:59;;;;;;;34.92;21.13;;;;;;;10.84;41.29;100714.53;5042242;28;20493;-74
2022/03/29 00:11:25;;;;;;;28.38;19.77;;;;;;;10.76;42.18;100708.34;5041629;28;20049;-73
2022/03/29 00:13:50;;;;;;;35.83;18.50;;;;;;;10.79;41.26;100697.84;5043674;28;20048;-73
2022/03/29 00:16:17;;;;;;;38.20;19.58;;;;;;;10.87;40.74;100696.16;5042048;28;20407;-73
2022/03/29 00:18:43;;;;;;;28.92;18.27;;;;;;;10.86;39.34;100698.75;5022798;28;20052;-73
2022/03/29 00:21:08;;;;;;;23.85;17.23;;;;;;;10.98;39.08;100702.31;5040360;28;20072;-73
2022/03/29 00:23:34;;;;;;;27.15;16.95;;;;;;;11.02;38.82;100691.81;5042354;28;20400;-73
2022/03/29 00:26:00;;;;;;;26.60;16.65;;;;;;;10.89;40.23;100688.28;5044638;28;20082;-73
2022/03/29 00:28:25;;;;;;;26.50;17.42;;;;;;;10.82;40.13;100690.00;5044053;28;20051;-73
2022/03/29 00:30:52;;;;;;;40.72;18.45;;;;;;;10.78;39.59;100670.75;5041216;28;20021;-73
2022/03/29 00:33:24;;;;;;;21.55;16.13;;;;;;;10.80;39.04;100668.13;5041254;28;20091;-73
2022/03/29 00:35:50;;;;;;;30.23;18.42;;;;;;;10.87;40.15;100679.53;5025935;28;20048;-73
2022/03/29 00:38:17;;;;;;;20.50;16.02;;;;;;;10.82;38.99;100674.25;5023443;28;20029;-73
2022/03/29 00:40:45;;;;;;;27.38;17.52;;;;;;;11.05;38.09;100679.59;5020154;28;20053;-73
2022/03/29 00:43:12;;;;;;;24.85;16.88;;;;;;;10.72;38.82;100670.75;5032370;28;20044;-73
2022/03/29 00:45:37;;;;;;;27.00;17.73;;;;;;;10.77;38.38;100649.75;5039231;28;20025;-73
2022/03/29 00:48:04;;;;;;;27.45;16.95;;;;;;;10.93;38.14;100656.81;5028555;28;20066;-73
2022/03/29 00:50:29;;;;;;;27.42;17.23;;;;;;;10.87;39.26;100661.16;5019795;28;20068;-74
2022/03/29 00:52:55;;;;;;;32.88;18.92;;;;;;;10.75;38.37;100662.88;5026804;28;20107;-74
2022/03/29 00:55:21;;;;;;;33.80;17.85;;;;;;;10.63;39.32;100647.09;5031471;28;20053;-74
2022/03/29 00:57:47;;;;;;;25.33;17.13;;;;;;;10.76;40.29;100654.09;5029583;28;20029;-74
2022/03/29 01:00:16;;;;;;;30.10;18.55;;;;;;;10.65;39.29;100637.47;5028401;28;20033;-73
2022/03/29 01:02:42;;;;;;;25.27;15.77;;;;;;;10.56;38.82;100629.56;5029885;28;20049;-73
2022/03/29 01:05:09;;;;;;;25.77;16.55;;;;;;;10.70;40.22;100645.31;5020620;28;20041;-73
2022/03/29 01:07:35;;;;;;;27.65;16.08;;;;;;;10.61;39.80;100629.59;5023611;28;20129;-73
2022/03/29 01:10:01;;;;;;;27.17;17.42;;;;;;;10.40;39.31;100639.13;5023555;28;20017;-73
2022/03/29 01:12:29;;;;;;;23.70;16.40;;;;;;;10.61;38.94;100627.81;5010138;28;20347;-74
2022/03/29 01:14:55;;;;;;;30.95;15.80;;;;;;;10.60;38.94;100625.19;5022622;28;20057;-73
2022/03/29 01:17:40;;;;;;;26.15;17.70;;;;;;;10.70;38.80;100612.13;5026777;28;20037;-73
2022/03/29 01:20:27;;;;;;;31.40;16.63;;;;;;;10.80;38.08;100625.25;5017415;28;20045;-73
2022/03/29 01:22:54;;;;;;;22.15;17.02;;;;;;;10.94;37.83;100611.28;5027117;28;20473;-73
2022/03/29 01:25:25;;;;;;;27.33;15.65;;;;;;;10.98;37.96;100613.03;5027726;28;20067;-74
2022/03/29 01:27:53;;;;;;;25.45;16.45;;;;;;;10.95;38.74;100607.75;5020801;28;20037;-74
2022/03/29 01:30:20;;;;;;;28.02;16.73;;;;;;;10.82;40.00;100610.41;5009890;28;20457;-73
2022/03/29 01:32:51;;;;;;;29.20;16.88;;;;;;;10.83;39.47;100599.88;5029750;28;20049;-73
2022/03/29 01:35:24;;;;;;;24.27;15.68;;;;;;;10.74;38.20;100600.72;5022811;28;20037;-73
2022/03/29 01:37:51;;;;;;;30.40;16.02;;;;;;;10.77;38.90;100597.25;5019982;28;20045;-73
2022/03/29 01:40:19;;;;;;;39.92;17.52;;;;;;;10.65;39.74;100569.25;5023617;28;20037;-74
2022/03/29 01:42:48;;;;;;;25.38;15.50;;;;;;;10.49;39.18;100588.44;4998828;28;20289;-74
2022/03/29 01:45:13;;;;;;;22.20;17.08;;;;;;;10.72;39.14;100580.59;5023088;28;20050;-73
2022/03/29 01:47:39;;;;;;;32.63;15.85;;;;;;;10.91;37.97;100574.53;5011481;28;20048;-74
2022/03/29 01:50:05;;;;;;;31.25;15.98;;;;;;;10.85;38.24;100569.25;5029114;28;20100;-73
2022/03/29 01:52:38;;;;;;;20.10;15.05;;;;;;;10.61;38.69;100570.09;5023760;28;20041;-74
2022/03/29 01:55:04;;;;;;;28.15;17.60;;;;;;;10.86;38.31;100557.00;5022298;28;20083;-74
2022/03/29 01:57:30;;;;;;;23.95;14.20;;;;;;;10.72;39.19;100557.88;5021578;28;20048;-73
2022/03/29 02:02:40;;;;;;;33.47;15.35;;;;;;;10.60;38.69;100551.72;5015460;28;20196;-74
2022/03/29 02:05:06;;;;;;;38.03;16.02;;;;;;;10.63;38.88;100555.25;5023353;28;20658;-73
2022/03/29 02:07:32;;;;;;;33.13;17.33;;;;;;;10.85;38.33;100550.88;5024334;28;20048;-74
2022/03/29 02:09:57;;;;;;;34.75;16.33;;;;;;;10.75;39.03;100546.50;5023090;28;20033;-73
2022/03/29 02:12:23;;;;;;;21.63;15.43;;;;;;;10.79;38.11;100548.25;5028526;28;20025;-74
2022/03/29 02:14:48;;;;;;;25.48;15.85;;;;;;;10.97;37.72;100558.75;5026228;28;20554;-73
2022/03/29 02:17:14;;;;;;;25.02;14.40;;;;;;;10.69;38.52;100544.72;5027195;28;20396;-73
2022/03/29 02:19:39;;;;;;;26.65;14.95;;;;;;;10.87;38.12;100535.16;5004472;28;20116;-74
2022/03/29 02:22:05;;;;;;;21.98;15.70;;;;;;;11.03;38.04;100543.88;5026087;28;20033;-75
2022/03/29 02:24:31;;;;;;;23.85;14.93;;;;;;;10.74;38.25;100534.25;5027435;28;20532;-74
2022/03/29 02:26:56;;;;;;;20.30;14.65;;;;;;;10.72;39.46;100543.84;5026845;28;20094;-73
2022/03/29 02:29:22;;;;;;;31.90;16.30;;;;;;;10.76;38.35;100532.50;5027730;28;20491;-73
2022/03/29 02:31:47;;;;;;;30.23;14.98;;;;;;;10.66;38.30;100530.75;5007731;28;20060;-73
2022/03/29 02:34:12;;;;;;;37.92;15.93;;;;;;;10.89;37.93;100528.16;5032755;28;20044;-73
2022/03/29 02:36:38;;;;;;;25.63;14.98;;;;;;;10.94;37.73;100529.88;5042383;28;20044;-73
2022/03/29 02:39:03;;;;;;;20.63;14.93;;;;;;;11.05;37.77;100540.41;5041643;28;20045;-73
2022/03/29 02:41:29;;;;;;;32.30;14.75;;;;;;;10.94;37.98;100539.53;5027523;28;20515;-72
2022/03/29 02:43:54;;;;;;;28.55;18.20;;;;;;;10.95;37.86;100539.50;5036292;28;20460;-72
2022/03/29 02:46:20;;;;;;;29.70;16.27;;;;;;;11.13;37.65;100532.53;5041078;28;20143;-72
2022/03/29 02:48:56;;;;;;;37.25;16.25;;;;;;;11.03;37.73;100530.75;5040906;28;20036;-73
2022/03/29 02:51:21;;;;;;;23.90;15.65;;;;;;;10.89;38.15;100522.91;5020614;28;20068;-73
2022/03/29 02:53:47;;;;;;;21.83;15.18;;;;;;;10.95;38.32;100523.75;5019804;28;20473;-73
2022/03/29 02:56:13;;;;;;;26.02;15.13;;;;;;;10.73;37.91;100512.38;5020748;28;20090;-73
2022/03/29 02:58:38;;;;;;;34.55;17.13;;;;;;;10.83;38.07;100523.75;5036686;28;20530;-73
2022/03/29 03:01:04;;;;;;;29.33;16.15;;;;;;;10.67;38.07;100525.47;5026402;28;20033;-72
2022/03/29 03:03:31;;;;;;;20.52;16.10;;;;;;;10.83;38.12;100513.25;5024378;28;20045;-73
2022/03/29 03:05:58;;;;;;;28.42;16.00;;;;;;;10.89;37.87;100521.16;5039016;28;20043;-72
2022/03/29 03:08:24;;;;;;;32.50;16.92;;;;;;;10.65;38.04;100508.88;5029841;28;20046;-73
2022/03/29 03:10:49;;;;;;;28.80;16.95;;;;;;;10.91;37.58;100514.16;5030792;28;20124;-73
2022/03/29 03:13:16;;;;;;;24.30;17.83;;;;;;;10.79;38.46;100503.63;5027553;28;20484;-73
2022/03/29 03:15:42;;;;;;;24.90;16.77;;;;;;;10.53;38.75;100516.72;5044496;28;20472;-73
2022/03/29 03:18:09;;;;;;;28.35;15.50;;;;;;;10.48;38.52;100519.31;5023474;28;20045;-73
2022/03/29 03:20:35;;;;;;;31.23;17.48;;;;;;;10.48;39.12;100508.84;5023724;28;20485;-73
2022/03/29 03:23:02;;;;;;;21.45;16.17;;;;;;;10.53;38.40;100508.84;5034175;28;20099;-73
2022/03/29 03:25:27;;;;;;;30.63;18.77;;;;;;;10.78;38.29;100507.13;5040256;28;20045;-73
2022/03/29 03:27:53;;;;;;;25.27;17.08;;;;;;;10.52;39.32;100510.59;5043124;28;20033;-73
2022/03/29 03:30:18;;;;;;;31.83;18.60;;;;;;;10.60;38.52;100500.09;5024365;28;20037;-73
2022/03/29 03:32:44;;;;;;;28.33;18.48;;;;;;;10.66;38.61;100508.00;5042342;28;20469;-73
2022/03/29 03:35:10;;;;;;;37.08;19.05;;;;;;;10.66;40.27;100499.25;5037130;28;20040;-73
2022/03/29 03:37:36;;;;;;;28.13;19.90;;;;;;;10.63;38.42;100486.09;5047117;28;20037;-72
2022/03/29 03:40:07;;;;;;;30.98;18.70;;;;;;;10.82;38.26;100494.91;5045695;28;20533;-73
2022/03/29 03:42:33;;;;;;;37.13;20.02;;;;;;;10.73;40.16;100483.50;5045073;28;20032;-72
2022/03/29 03:44:59;;;;;;;41.95;19.38;;;;;;;10.58;39.49;100480.84;5046254;28;20076;-73
2022/03/29 03:47:25;;;;;;;27.08;19.05;;;;;;;10.59;39.05;100490.50;5049472;28;20060;-73
2022/03/29 03:49:51;;;;;;;35.95;18.73;;;;;;;10.64;39.49;100483.50;5052014;28;20045;-73
2022/03/29 03:52:16;;;;;;;32.80;18.17;;;;;;;10.63;39.45;100483.50;5050036;28;20040;-73
2022/03/29 03:54:42;;;;;;;32.33;20.85;;;;;;;10.65;39.27;100476.50;5044556;28;20030;-73
2022/03/29 03:57:08;;;;;;;33.33;19.58;;;;;;;10.60;38.90;100473.00;5027042;28;20350;-73
2022/03/29 03:59:34;;;;;;;41.95;20.20;;;;;;;10.68;39.14;100473.91;5036385;28;20123;-73
2022/03/29 04:01:59;;;;;;;34.35;21.40;;;;;;;10.72;39.35;100473.91;5038306;28;20136;-74
2022/03/29 04:04:25;;;;;;;39.92;20.83;;;;;;;10.49;42.09;100473.88;5023974;28;20103;-74
2022/03/29 04:06:51;;;;;;;24.23;20.20;;;;;;;10.64;40.66;100470.38;5006609;28;20041;-74
2022/03/29 04:09:17;;;;;;;28.98;22.15;;;;;;;10.57;39.89;100477.38;5009106;28;20029;-74
2022/03/29 04:11:43;;;;;;;33.10;21.13;;;;;;;10.61;40.49;100474.75;5004270;28;20099;-74
2022/03/29 04:14:09;;;;;;;40.03;23.38;;;;;;;10.41;39.82;100457.22;5004355;28;20034;-74
2022/03/29 04:16:35;;;;;;;32.60;21.80;;;;;;;10.45;39.83;100456.38;5003043;28;20116;-74
2022/03/29 04:19:00;;;;;;;34.00;22.08;;;;;;;10.50;40.04;100464.25;4998222;28;20061;-72
2022/03/29 04:21:26;;;;;;;37.95;23.80;;;;;;;10.43;39.41;100472.97;5009376;28;20029;-74
2022/03/29 04:23:51;;;;;;;36.75;21.60;;;;;;;10.46;39.64;100476.47;5010695;28;20104;-74
2022/03/29 04:26:17;;;;;;;30.40;23.27;;;;;;;10.65;39.20;100480.03;5004706;28;20038;-73
2022/03/29 04:28:43;;;;;;;33.20;24.63;;;;;;;10.64;39.82;100474.75;5003924;28;20049;-73
2022/03/29 04:31:09;;;;;;;35.15;22.58;;;;;;;10.39;40.94;100479.09;5004047;28;20100;-73
2022/03/29 04:33:35;;;;;;;37.78;23.20;;;;;;;10.37;39.64;100468.59;5020725;28;20045;-73
2022/03/29 04:36:02;;;;;;;40.55;24.13;;;;;;;10.45;39.37;100471.25;5040882;28;20554;-72
2022/03/29 04:38:28;;;;;;;30.65;22.60;;;;;;;10.36;39.47;100472.09;5047461;28;20532;-74
2022/03/29 04:40:53;;;;;;;31.95;24.27;;;;;;;10.44;39.99;100474.72;5039214;28;20461;-73
2022/03/29 04:43:19;;;;;;;37.70;23.52;;;;;;;10.43;41.87;100473.84;5041568;28;20140;-73
2022/03/29 04:45:44;;;;;;;57.65;27.52;;;;;;;10.40;41.72;100476.47;5040563;28;20029;-73
2022/03/29 04:48:11;;;;;;;61.35;25.52;;;;;;;10.38;41.27;100478.22;5040617;28;20539;-73
2022/03/29 04:50:38;;;;;;;38.33;24.70;;;;;;;10.49;40.21;100467.75;5039283;28;20052;-73
2022/03/29 04:53:04;;;;;;;44.95;23.80;;;;;;;10.50;40.84;100469.50;5043885;28;20052;-74
2022/03/29 04:55:30;;;;;;;36.22;24.50;;;;;;;10.35;40.52;100471.22;5040487;28;20088;-73
2022/03/29 04:57:56;;;;;;;29.90;22.90;;;;;;;10.54;39.85;100474.75;5036710;28;20037;-73
2022/03/29 05:00:21;;;;;;;44.53;26.35;;;;;;;10.50;39.43;100485.22;5042323;28;20103;-73
2022/03/29 05:02:48;;;;;;;35.50;23.75;;;;;;;10.56;39.72;100480.88;5043142;28;20033;-74
2022/03/29 05:05:14;;;;;;;41.38;23.88;;;;;;;10.67;40.84;100483.50;5043862;28;20459;-72
2022/03/29 05:07:41;;;;;;;34.13;23.17;;;;;;;10.68;41.73;100485.25;5041805;28;20045;-72
2022/03/29 05:10:08;;;;;;;57.42;25.38;;;;;;;10.68;41.92;100482.63;5035809;28;20377;-73
2022/03/29 05:12:44;;;;;;;38.85;24.88;;;;;;;10.76;40.57;100475.63;5038308;28;20071;-73
2022/03/29 05:15:10;;;;;;;34.05;23.45;;;;;;;10.82;41.46;100459.03;5040396;28;20106;-75
2022/03/29 05:17:37;;;;;;;39.05;25.30;;;;;;;10.75;41.43;100478.28;5040349;28;20041;-73
2022/03/29 05:20:04;;;;;;;37.17;27.20;;;;;;;10.86;42.03;100470.38;5039872;28;20102;-73
2022/03/29 05:22:30;;;;;;;30.02;24.42;;;;;;;10.92;41.42;100470.38;5040388;28;20045;-74
2022/03/29 05:24:56;;;;;;;49.78;28.95;;;;;;;11.01;41.32;100469.50;5034512;28;20033;-73
2022/03/29 05:27:22;;;;;;;41.30;26.90;;;;;;;11.09;41.71;100454.59;5038525;28;20028;-73
2022/03/29 05:29:47;;;;;;;51.53;31.08;;;;;;;11.22;41.67;100469.47;5039128;28;20389;-74
2022/03/29 05:32:18;;;;;;;47.60;29.92;;;;;;;11.26;41.38;100459.81;5055005;28;20033;-74
2022/03/29 05:38:05;;;;;;;51.53;28.17;;;;;;;11.11;41.73;100455.50;5054112;28;20039;-75
2022/03/29 05:40:30;;;;;;;38.70;27.83;;;;;;;11.35;41.43;100444.91;5045719;28;20044;-74
2022/03/29 05:42:56;;;;;;;65.22;29.38;;;;;;;12.15;39.40;100435.84;5050840;28;20469;-74
2022/03/29 05:45:22;;;;;;;47.65;28.55;;;;;;;12.64;39.99;100435.50;5053384;28;20036;-75
2022/03/29 05:57:52;;;;;;;36.90;29.13;;;;;;;13.12;37.83;100450.88;5074763;28;20055;-82
2022/03/29 06:00:21;;;;;;;51.92;29.83;;;;;;;13.33;36.81;100447.19;5074686;28;20028;-80
2022/03/29 06:02:47;;;;;;;63.10;30.25;;;;;;;13.58;36.66;100447.75;5057857;28;20061;-80
2022/03/29 06:05:12;;;;;;;44.70;28.17;;;;;;;13.52;36.36;100438.19;5057741;28;20048;-79
2022/03/29 06:07:38;;;;;;;42.47;29.73;;;;;;;13.45;36.29;100432.09;5056413;28;20052;-77
2022/03/29 06:10:04;;;;;;;51.78;31.23;;;;;;;13.28;36.11;100439.34;5054911;28;20028;-80
2022/03/29 06:12:30;;;;;;;40.60;31.95;;;;;;;13.41;36.90;100434.78;5058849;28;20029;-79
2022/03/29 06:14:56;;;;;;;36.25;28.55;;;;;;;13.31;36.76;100420.84;5055644;28;20036;-79
2022/03/29 06:17:21;;;;;;;37.60;29.30;;;;;;;13.32;36.45;100440.16;5053276;28;20044;-76
2022/03/29 06:19:47;;;;;;;44.45;30.95;;;;;;;13.14;38.07;100428.03;5058185;28;20051;-77
2022/03/29 06:22:12;;;;;;;50.60;28.88;;;;;;;13.24;37.11;100434.94;5056720;28;20036;-77
2022/03/29 06:24:39;;;;;;;70.47;32.28;;;;;;;13.21;38.04;100435.00;5038916;28;20048;-77
2022/03/29 06:27:04;;;;;;;49.40;31.92;;;;;;;13.11;36.95;100428.94;5059005;28;20052;-75
2022/03/29 06:29:30;;;;;;;54.08;30.77;;;;;;;12.96;37.34;100435.22;5057086;28;20070;-77
2022/03/29 06:31:56;;;;;;;41.17;28.88;;;;;;;13.26;37.25;100426.13;5055259;28;20041;-76
2022/03/29 06:34:22;;;;;;;43.95;29.20;;;;;;;13.37;36.10;100427.78;5040296;28;20110;-73
2022/03/29 06:36:48;;;;;;;46.33;30.23;;;;;;;13.40;35.85;100423.38;5040054;28;20021;-76
2022/03/29 06:39:13;;;;;;;49.15;30.67;;;;;;;13.38;37.85;100427.78;5039329;28;20375;-76
2022/03/29 06:41:40;;;;;;;44.15;28.05;;;;;;;13.29;36.46;100415.56;5018876;28;20526;-80
2022/03/29 06:44:08;;;;;;;41.83;30.17;;;;;;;13.32;36.56;100416.44;5038333;28;20048;-76
2022/03/29 06:46:34;;;;;;;47.58;29.70;;;;;;;13.21;36.98;100404.22;5040476;28;20049;-79
2022/03/29 06:49:02;;;;;;;46.55;28.50;;;;;;;13.28;37.33;100420.88;5040792;28;20039;-79
2022/03/29 06:51:32;;;;;;;53.67;31.98;;;;;;;13.15;37.31;100408.69;5040203;28;20029;-79
2022/03/29 06:53:57;;;;;;;74.75;30.80;;;;;;;12.85;37.80;100394.94;5041988;28;20049;-74
2022/03/29 06:56:25;;;;;;;54.72;30.25;;;;;;;13.31;37.89;100397.13;5039639;28;20069;-78
2022/03/29 06:58:51;;;;;;;41.65;28.45;;;;;;;13.50;37.57;100403.91;5039164;28;20056;-79
2022/03/29 07:01:16;;;;;;;46.03;30.98;;;;;;;13.49;37.51;100401.31;5044493;28;20040;-79
2022/03/29 07:03:42;;;;;;;66.00;30.55;;;;;;;13.58;37.39;100405.59;5041156;28;20362;-78
2022/03/29 07:06:08;;;;;;;50.33;32.60;;;;;;;13.62;37.95;100397.63;5043073;28;20052;-78
2022/03/29 07:08:33;;;;;;;69.55;30.35;;;;;;;13.69;37.56;100393.13;5042099;28;20036;-78
2022/03/29 07:11:21;;;;;;;57.20;29.48;;;;;;;13.70;36.76;100400.19;5041334;28;21572;-80
2022/03/29 07:13:46;;;;;;;44.78;29.77;;;;;;;13.82;36.46;100397.38;5042180;28;20086;-78
2022/03/29 07:16:16;;;;;;;39.22;27.77;;;;;;;13.84;36.14;100392.94;5040982;28;20060;-72
2022/03/29 07:18:42;;;;;;;68.20;28.35;;;;;;;14.02;35.51;100386.53;5040656;28;20024;-79
2022/03/29 07:21:10;;;;;;;39.25;24.10;;;;;;;14.33;35.60;100392.22;5046528;28;20164;-79
2022/03/29 07:23:36;;;;;;;41.22;27.70;;;;;;;14.37;36.09;100390.38;5043244;28;20045;-78
2022/03/29 07:26:01;;;;;;;40.45;26.17;;;;;;;14.67;34.96;100396.09;5042200;28;20064;-80
2022/03/29 07:28:27;;;;;;;46.67;25.23;;;;;;;14.64;34.60;100386.47;5039674;28;20419;-79
2022/03/29 07:30:52;;;;;;;36.47;25.20;;;;;;;14.76;33.67;100388.03;5042387;28;20036;-79
2022/03/29 07:33:18;;;;;;;34.30;22.30;;;;;;;14.83;33.21;100388.78;5050289;28;20045;-79
2022/03/29 07:35:45;;;;;;;36.03;22.33;;;;;;;14.90;33.54;100375.44;5053505;28;20078;-77
2022/03/29 07:38:11;;;;;;;37.95;23.42;;;;;;;14.97;33.86;100382.34;5057428;28;20052;-78
2022/03/29 07:40:38;;;;;;;34.90;20.67;;;;;;;15.02;32.61;100376.13;5056789;28;20102;-79
2022/03/29 07:43:05;;;;;;;34.63;19.48;;;;;;;15.08;33.01;100362.78;5056439;28;20135;-76
2022/03/29 07:45:31;;;;;;;28.27;19.75;;;;;;;15.25;33.58;100376.53;5058069;28;20036;-78
2022/03/29 07:47:57;;;;;;;44.65;20.55;;;;;;;14.99;32.99;100362.06;5057667;28;20052;-78
2022/03/29 07:50:24;;;;;;;30.13;20.75;;;;;;;14.89;33.39;100371.06;5060775;28;20049;-78
2022/03/29 07:52:50;;;;;;;41.15;20.27;;;;;;;15.24;33.05;100371.28;5062782;28;20047;-80
2022/03/29 07:55:16;;;;;;;29.95;20.70;;;;;;;15.44;32.76;100360.31;5059903;28;20048;-79
2022/03/29 07:57:43;;;;;;;33.28;21.23;;;;;;;15.31;33.52;100357.91;5061854;28;20067;-78
2022/03/29 08:02:56;;;;;;;41.30;19.00;;;;;;;15.43;32.36;100356.78;5034319;28;20504;-79
2022/03/29 08:05:22;;;;;;;41.88;19.65;;;;;;;15.74;32.33;100364.09;5036304;28;20061;-79
2022/03/29 08:07:48;;;;;;;28.25;20.30;;;;;;;15.89;31.78;100360.22;5041057;28;20045;-78
2022/03/29 08:10:14;;;;;;;39.85;19.20;;;;;;;15.75;31.79;100350.81;5041382;28;20408;-80
2022/03/29 08:12:41;;;;;;;32.72;19.00;;;;;;;16.01;31.52;100350.25;5041554;28;20033;-79
2022/03/29 08:15:08;;;;;;;26.25;18.45;;;;;;;16.02;32.32;100340.53;5040409;28;20069;-78
2022/03/29 08:17:34;;;;;;;29.23;18.08;;;;;;;16.21;31.85;100351.53;5039788;28;20469;-79
2022/03/29 08:20:00;;;;;;;31.42;17.30;;;;;;;16.22;31.83;100337.38;5040159;28;20041;-75
2022/03/29 08:22:25;;;;;;;36.47;18.70;;;;;;;16.48;31.52;100347.31;5040491;28;20059;-76
2022/03/29 08:24:51;;;;;;;36.15;16.70;;;;;;;16.58;31.54;100347.97;5041416;28;20036;-79
2022/03/29 08:27:16;;;;;;;20.98;17.15;;;;;;;16.58;31.67;100338.25;5041045;28;20040;-79
2022/03/29 08:29:42;;;;;;;23.00;15.68;;;;;;;16.41;31.17;100348.38;5040228;28;20134;-79
2022/03/29 08:32:07;;;;;;;26.90;14.57;;;;;;;16.56;31.77;100339.19;5040142;28;20091;-75
2022/03/29 08:34:33;;;;;;;20.27;13.80;;;;;;;16.54;32.34;100330.41;5035492;28;20499;-78
2022/03/29 08:36:58;;;;;;;24.20;14.85;;;;;;;16.64;31.52;100335.41;5039814;28;20064;-79
2022/03/29 08:39:24;;;;;;;31.15;15.52;;;;;;;16.63;31.33;100325.75;5041860;28;20024;-79
2022/03/29 08:41:57;;;;;;;24.55;14.23;;;;;;;16.58;31.57;100321.50;5038446;28;20943;-75
2022/03/29 08:44:26;;;;;;;19.50;13.38;;;;;;;16.73;31.94;100325.50;5041825;28;20489;-78
2022/03/29 08:46:52;;;;;;;24.92;16.15;;;;;;;17.15;31.58;100325.28;5038773;28;20430;-72
2022/03/29 08:49:19;;;;;;;34.10;15.68;;;;;;;17.12;31.70;100326.22;5039745;28;20362;-77
2022/03/29 08:51:45;;;;;;;30.23;17.98;;;;;;;17.01;31.68;100330.94;5040070;28;20037;-79
2022/03/29 08:54:11;;;;;;;25.38;15.20;;;;;;;16.82;31.84;100320.84;5039155;28;20495;-76
2022/03/29 08:56:39;;;;;;;22.58;16.35;;;;;;;16.90;32.06;100317.13;5038489;28;20336;-72
2022/03/29 08:59:05;;;;;;;25.58;16.17;;;;;;;17.15;31.96;100312.00;5039523;28;20127;-78
2022/03/29 09:01:31;;;;;;;26.27;16.02;;;;;;;17.29;31.68;100310.69;5038336;28;20083;-78
2022/03/29 09:04:07;;;;;;;29.50;17.17;;;;;;;17.13;31.84;100312.03;5039019;28;20071;-77
2022/03/29 09:06:33;;;;;;;26.15;15.98;;;;;;;17.29;31.58;100293.91;5039305;28;20423;-78
2022/03/29 09:08:59;;;;;;;26.38;17.48;;;;;;;17.56;31.61;100318.75;5039357;28;20539;-77
2022/03/29 09:11:24;;;;;;;27.15;15.82;;;;;;;17.60;31.97;100296.50;5038102;28;20327;-74
2022/03/29 09:14:03;;;;;;;25.58;15.70;;;;;;;17.42;32.24;100305.91;5039835;28;20081;-78
2022/03/29 09:16:34;;;;;;;32.65;20.23;;;;;;;17.59;31.69;100289.47;5038164;28;20040;-78
2022/03/29 09:19:00;;;;;;;27.13;17.75;;;;;;;17.63;31.57;100293.75;5040725;28;20029;-79
2022/03/29 09:21:27;;;;;;;27.92;18.73;;;;;;;17.69;31.69;100272.31;5038738;28;20039;-78
2022/03/29 09:24:11;;;;;;;33.20;16.92;;;;;;;17.87;31.64;100294.81;5036317;28;20414;-75
2022/03/29 09:26:41;;;;;;;27.85;17.67;;;;;;;17.77;31.96;100290.69;5037128;28;20037;-80
2022/03/29 09:29:18;;;;;;;26.80;16.80;;;;;;;17.95;31.93;100289.25;5039687;28;20045;-79
2022/03/29 09:31:44;;;;;;;34.88;17.60;;;;;;;17.83;31.52;100276.38;5039228;28;20053;-79
2022/03/29 09:34:17;;;;;;;22.95;18.02;;;;;;;17.99;31.64;100274.94;5038936;28;20083;-78
2022/03/29 09:36:50;;;;;;;22.25;16.13;;;;;;;17.89;31.79;100270.88;5034322;28;20035;-78
2022/03/29 09:39:39;;;;;;;28.73;17.48;;;;;;;17.88;31.42;100275.28;5039934;28;20059;-79
2022/03/29 09:42:12;;;;;;;22.73;17.42;;;;;;;18.32;31.44;100264.13;5038745;28;20108;-80
2022/03/29 09:44:47;;;;;;;34.28;16.65;;;;;;;18.05;31.07;100265.91;5039176;28;20552;-79
2022/03/29 09:47:22;;;;;;;23.50;17.88;;;;;;;18.21;31.00;100256.50;5037424;28;20492;-78
2022/03/29 09:49:56;;;;;;;27.30;16.80;;;;;;;18.41;31.15;100254.97;5039680;28;20403;-80
2022/03/29 09:52:35;;;;;;;23.00;15.73;;;;;;;18.49;31.36;100253.75;5039386;28;20587;-79
2022/03/29 09:55:21;;;;;;;23.70;16.70;;;;;;;18.58;30.96;100247.25;5038153;28;20045;-79
2022/03/29 09:57:48;;;;;;;33.70;16.13;;;;;;;18.51;30.89;100238.63;5041371;28;20047;-78
2022/03/29 10:00:36;;;;;;;27.25;15.75;;;;;;;18.59;31.12;100230.41;5039010;28;20119;-78
2022/03/29 10:03:06;;;;;;;20.80;15.10;;;;;;;18.79;30.99;100221.72;5037263;28;20045;-77
2022/03/29 10:05:34;;;;;;;38.70;16.80;;;;;;;18.61;30.67;100225.00;5039636;28;20112;-78
2022/03/29 10:11:15;;;;;;;25.70;14.60;;;;;;;18.68;30.94;100208.81;5037982;28;20144;-79
2022/03/29 10:13:41;;;;;;;21.58;15.05;;;;;;;19.22;30.87;100205.91;5037555;28;20123;-79
2022/03/29 10:16:17;;;;;;;22.00;14.85;;;;;;;19.02;31.19;100196.94;5040209;28;20040;-78
2022/03/29 10:18:45;;;;;;;21.42;13.23;;;;;;;18.92;30.81;100175.16;5036288;28;20303;-78
2022/03/29 10:21:15;;;;;;;17.60;14.13;;;;;;;18.99;30.43;100186.41;5039126;28;20142;-78
2022/03/29 10:23:44;;;;;;;20.63;14.52;;;;;;;18.99;30.69;100175.78;5037805;28;20065;-78
2022/03/29 10:26:11;;;;;;;25.92;15.10;;;;;;;19.17;30.35;100176.84;5039140;28;20045;-77
2022/03/29 10:28:36;;;;;;;21.58;13.45;;;;;;;19.68;30.64;100175.69;5040328;28;20037;-79
2022/03/29 10:31:26;;;;;;;16.42;12.27;;;;;;;19.39;30.18;100172.41;5038329;28;20057;-79
2022/03/29 10:34:17;;;;;;;24.98;14.70;;;;;;;19.80;30.17;100180.50;5037102;28;20484;-78
2022/03/29 10:37:04;;;;;;;31.08;15.30;;;;;;;19.52;30.08;100175.44;5034705;28;20094;-78
2022/03/29 10:39:46;;;;;;;24.55;14.48;;;;;;;19.66;29.31;100174.00;5039055;28;20049;-77
2022/03/29 10:42:30;;;;;;;24.38;14.25;;;;;;;19.81;29.60;100168.09;5038812;28;20100;-79
2022/03/29 10:45:05;;;;;;;36.05;14.18;;;;;;;19.73;29.48;100148.88;5037722;28;20057;-77
2022/03/29 10:47:32;;;;;;;24.25;14.25;;;;;;;20.26;29.50;100144.84;5038002;28;20045;-77
2022/03/29 10:49:58;;;;;;;26.30;15.25;;;;;;;20.03;29.51;100150.22;5038653;28;20448;-79
2022/03/29 10:52:24;;;;;;;21.83;15.18;;;;;;;20.56;29.16;100147.97;5038310;28;20032;-79
2022/03/29 10:54:50;;;;;;;26.23;14.73;;;;;;;20.77;28.96;100138.97;5037606;28;20445;-76
2022/03/29 10:57:28;;;;;;;31.88;15.65;;;;;;;20.33;29.49;100139.16;5038644;28;20025;-77
2022/03/29 11:00:21;;;;;;;23.20;15.88;;;;;;;20.91;28.69;100140.13;5047366;28;20037;-80
2022/03/29 11:03:09;;;;;;;21.90;15.10;;;;;;;20.47;29.03;100127.03;5033682;28;20056;-80
2022/03/29 11:06:07;;;;;;;21.65;14.25;;;;;;;21.13;29.04;100124.81;5039203;28;20116;-79
2022/03/29 11:08:39;;;;;;;32.90;15.75;;;;;;;21.20;28.97;100122.72;5033319;28;20052;-81
2022/03/29 11:11:05;;;;;;;22.25;14.88;;;;;;;20.70;28.65;100102.88;5039028;28;20045;-79
2022/03/29 11:13:37;;;;;;;18.40;13.95;;;;;;;20.34;29.40;100108.91;5037597;28;20044;-79
2022/03/29 11:16:25;;;;;;;19.15;12.90;;;;;;;21.25;28.90;100102.88;5036278;28;20049;-80
2022/03/29 11:18:52;;;;;;;26.45;14.57;;;;;;;21.23;28.20;100086.06;5028031;28;20041;-79
2022/03/29 11:21:37;;;;;;;22.23;14.70;;;;;;;21.36;28.13;100089.00;5040179;28;20025;-80
2022/03/29 11:24:05;;;;;;;27.42;15.50;;;;;;;21.19;28.34;100081.84;5039447;28;20049;-79
2022/03/29 11:26:33;;;;;;;24.38;14.65;;;;;;;21.49;28.79;100066.13;5042383;28;20068;-80
2022/03/29 11:29:00;;;;;;;23.15;15.23;;;;;;;22.05;27.72;100073.94;5040969;28;21005;-79
2022/03/29 11:31:34;;;;;;;26.88;15.43;;;;;;;21.95;28.60;100046.84;5040977;28;20076;-78
2022/03/29 11:33:59;;;;;;;21.42;15.32;;;;;;;21.75;28.29;100055.03;5038542;28;20148;-80
2022/03/29 11:36:25;;;;;;;21.48;14.30;;;;;;;22.33;28.29;100049.28;5038341;28;20040;-79